Time;durP1;ratioP1;P1;durP2;ratioP2;P2;SDS_P1;SDS_P2;PMS_P1;PMS_P2;Temp;Humidity;BMP_temperature;BMP_pressure;BME280_temperature;BME280_humidity;BME280_pressure;Samples;Min_cycle;Max_cycle;Signal;HPM_P1;HPM_P2
2023/10/03 00:00:24;;;;;;;40.10;18.67;;;16.30;99.90;;;;;;5049602;28;20036;-66
2023/10/03 00:02:54;;;;;;;39.05;19.20;;;16.30;99.90;;;;;;5052839;28;20506;-66
2023/10/03 00:05:22;;;;;;;43.80;21.07;;;16.30;99.90;;;;;;5052632;28;20048;-66
2023/10/03 00:07:49;;;;;;;47.20;19.90;;;16.30;99.90;;;;;;5063730;28;20295;-66
2023/10/03 00:10:15;;;;;;;42.60;19.75;;;16.20;99.90;;;;;;5044891;28;20090;-66
2023/10/03 00:12:42;;;;;;;43.75;20.17;;;16.20;99.90;;;;;;5036116;28;20123;-66
2023/10/03 00:15:08;;;;;;;40.35;19.80;;;16.20;99.90;;;;;;5046430;28;20060;-66
2023/10/03 00:17:34;;;;;;;37.42;19.33;;;16.20;99.90;;;;;;5037643;28;20040;-66
2023/10/03 00:20:03;;;;;;;47.85;21.58;;;16.20;99.90;;;;;;5054167;28;20064;-67
2023/10/03 00:22:29;;;;;;;49.45;22.13;;;16.20;99.90;;;;;;5049726;28;20461;-66
2023/10/03 00:24:54;;;;;;;46.08;20.83;;;16.20;99.90;;;;;;5052071;28;20223;-66
2023/10/03 00:27:20;;;;;;;42.10;20.30;;;16.20;99.90;;;;;;5064647;28;20045;-66
2023/10/03 00:29:45;;;;;;;48.20;21.52;;;16.20;99.90;;;;;;5050009;28;20029;-66
2023/10/03 00:32:11;;;;;;;53.08;22.80;;;16.20;99.90;;;;;;5066146;28;20130;-66
2023/10/03 00:34:37;;;;;;;45.58;20.33;;;16.20;99.90;;;;;;5044093;28;20583;-66
2023/10/03 00:37:03;;;;;;;50.85;22.55;;;16.20;99.90;;;;;;5038171;28;20051;-66
2023/10/03 00:39:29;;;;;;;47.85;21.05;;;16.20;99.90;;;;;;5049056;28;20044;-66
2023/10/03 00:41:55;;;;;;;45.17;21.20;;;16.20;99.90;;;;;;5045820;28;20099;-66
2023/10/03 00:44:21;;;;;;;46.50;22.20;;;16.20;99.90;;;;;;5061334;28;20102;-66
2023/10/03 00:46:47;;;;;;;50.85;21.23;;;16.20;99.90;;;;;;5050880;28;20048;-66
2023/10/03 00:49:14;;;;;;;46.92;20.38;;;16.20;99.90;;;;;;5061153;28;20053;-66
2023/10/03 00:51:40;;;;;;;52.15;22.35;;;16.20;99.90;;;;;;5049793;28;20119;-66
2023/10/03 00:54:06;;;;;;;48.65;20.55;;;16.20;99.90;;;;;;5042769;28;20423;-66
2023/10/03 00:56:32;;;;;;;49.42;20.98;;;16.20;99.90;;;;;;5042907;28;20129;-66
2023/10/03 00:58:57;;;;;;;44.70;20.63;;;16.20;99.90;;;;;;5055295;28;20047;-66
2023/10/03 01:01:27;;;;;;;46.25;21.10;;;16.20;99.90;;;;;;5066824;28;20049;-66
2023/10/03 01:03:55;;;;;;;45.28;20.60;;;16.20;99.90;;;;;;5046486;28;20108;-66
2023/10/03 01:06:21;;;;;;;45.35;20.77;;;16.20;99.90;;;;;;5036118;28;20428;-65
2023/10/03 01:08:49;;;;;;;47.08;20.42;;;16.20;99.90;;;;;;5067057;28;20059;-66
2023/10/03 01:11:20;;;;;;;49.42;20.98;;;16.20;99.90;;;;;;5041409;28;20127;-66
2023/10/03 01:13:48;;;;;;;45.88;19.60;;;16.20;99.90;;;;;;5041616;28;20445;-66
2023/10/03 01:16:20;;;;;;;43.22;18.95;;;16.20;99.90;;;;;;5045171;28;20084;-66
2023/10/03 01:18:47;;;;;;;49.80;21.10;;;16.20;99.90;;;;;;5032552;28;20047;-66
2023/10/03 01:21:13;;;;;;;50.15;19.70;;;16.20;99.90;;;;;;5058291;28;20044;-66
2023/10/03 01:23:40;;;;;;;45.05;20.40;;;16.20;99.90;;;;;;5045938;28;20507;-65
2023/10/03 01:26:09;;;;;;;49.78;19.92;;;16.20;99.90;;;;;;5057028;28;20052;-66
2023/10/03 01:28:35;;;;;;;44.65;20.40;;;16.20;99.90;;;;;;5036887;28;20059;-66
2023/10/03 01:31:01;;;;;;;41.58;18.65;;;16.20;99.90;;;;;;5042648;28;20032;-66
2023/10/03 01:33:27;;;;;;;45.47;19.08;;;16.10;99.90;;;;;;5046106;28;20085;-68
2023/10/03 01:35:53;;;;;;;37.95;17.85;;;16.10;99.90;;;;;;5056013;28;20060;-68
2023/10/03 01:38:20;;;;;;;40.95;16.58;;;16.10;99.90;;;;;;5038564;28;20059;-67
2023/10/03 01:40:50;;;;;;;42.78;17.88;;;16.10;99.90;;;;;;5057532;28;20029;-68
2023/10/03 01:43:16;;;;;;;41.17;16.30;;;16.10;99.90;;;;;;5048531;28;20087;-68
2023/10/03 01:45:42;;;;;;;38.85;16.58;;;16.30;99.90;;;;;;5035185;28;20036;-68
2023/10/03 01:48:07;;;;;;;32.45;14.90;;;16.30;99.90;;;;;;5028643;28;20040;-69
2023/10/03 01:50:36;;;;;;;33.70;14.77;;;16.50;99.90;;;;;;5063751;28;20036;-70
2023/10/03 01:53:02;;;;;;;40.10;16.38;;;16.50;99.90;;;;;;5048995;28;20503;-68
2023/10/03 01:55:28;;;;;;;35.50;14.85;;;16.50;99.90;;;;;;5062746;28;20372;-68
2023/10/03 01:57:54;;;;;;;39.92;15.38;;;16.60;99.90;;;;;;5043139;28;20040;-68
2023/10/03 02:00:26;;;;;;;40.80;15.15;;;16.70;99.90;;;;;;5047964;28;20040;-67
2023/10/03 02:03:00;;;;;;;37.97;14.82;;;16.80;99.90;;;;;;5048698;28;20032;-68
2023/10/03 02:05:27;;;;;;;34.72;14.63;;;16.90;99.90;;;;;;5051166;28;20142;-68
2023/10/03 02:10:39;;;;;;;39.22;14.65;;;16.90;99.90;;;;;;5057935;28;20121;-71
2023/10/03 02:13:14;;;;;;;37.92;15.20;;;17.00;99.90;;;;;;5039776;28;20040;-67
2023/10/03 02:15:44;;;;;;;38.97;15.20;;;17.00;99.90;;;;;;5045285;28;20037;-67
2023/10/03 02:18:12;;;;;;;36.03;14.68;;;17.00;99.90;;;;;;5044143;28;20120;-69
2023/10/03 02:20:47;;;;;;;36.45;14.52;;;17.00;99.90;;;;;;5053580;28;20576;-69
2023/10/03 02:23:23;;;;;;;36.97;14.75;;;17.10;99.90;;;;;;5068310;28;20048;-69
2023/10/03 02:25:55;;;;;;;33.67;14.10;;;17.10;99.90;;;;;;5044504;28;20040;-69
2023/10/03 02:28:20;;;;;;;34.10;14.35;;;17.10;99.90;;;;;;5045956;28;20119;-69
2023/10/03 02:30:48;;;;;;;37.90;13.88;;;17.20;99.90;;;;;;5039463;28;20129;-68
2023/10/03 02:33:15;;;;;;;40.55;14.90;;;17.10;99.90;;;;;;5047221;28;20163;-69
2023/10/03 02:35:42;;;;;;;35.47;14.30;;;17.10;99.90;;;;;;5043434;28;20036;-69
2023/10/03 02:38:10;;;;;;;33.40;13.40;;;17.10;99.90;;;;;;5044105;28;20052;-68
2023/10/03 02:40:36;;;;;;;35.63;14.93;;;17.10;99.90;;;;;;5039835;28;20046;-67
2023/10/03 02:43:02;;;;;;;37.15;13.88;;;17.20;99.90;;;;;;5061249;28;20033;-69
2023/10/03 02:45:28;;;;;;;35.70;14.18;;;17.10;99.90;;;;;;5059251;28;20040;-68
2023/10/03 02:48:13;;;;;;;37.53;15.40;;;17.20;99.90;;;;;;5060933;28;20033;-68
2023/10/03 02:50:41;;;;;;;39.47;14.73;;;17.10;99.90;;;;;;5064185;28;20518;-69
2023/10/03 02:53:11;;;;;;;33.47;14.40;;;17.20;99.90;;;;;;5042577;28;20222;-68
2023/10/03 02:55:37;;;;;;;32.28;12.50;;;17.20;99.90;;;;;;5044788;28;20090;-69
2023/10/03 02:58:03;;;;;;;33.95;13.48;;;17.20;99.90;;;;;;5039145;28;20040;-67
2023/10/03 03:00:28;;;;;;;37.33;14.73;;;17.10;99.90;;;;;;5061611;28;20400;-69
2023/10/03 03:02:56;;;;;;;32.45;13.23;;;17.20;99.90;;;;;;5043577;28;20079;-68
2023/10/03 03:05:22;;;;;;;32.83;14.25;;;17.20;99.90;;;;;;5045662;28;20839;-68
2023/10/03 03:07:49;;;;;;;33.83;13.82;;;17.20;99.90;;;;;;5042095;28;20110;-69
2023/10/03 03:10:17;;;;;;;32.17;13.75;;;17.20;99.90;;;;;;5048920;28;22611;-68
2023/10/03 03:12:44;;;;;;;33.28;13.60;;;17.30;99.90;;;;;;5056796;28;20037;-68
2023/10/03 03:15:27;;;;;;;34.50;14.48;;;17.30;99.90;;;;;;5053057;28;20047;-68
2023/10/03 03:17:53;;;;;;;32.38;13.55;;;17.30;99.90;;;;;;5040299;28;20116;-68
2023/10/03 03:20:24;;;;;;;36.30;14.18;;;17.20;99.90;;;;;;5065412;28;20221;-68
2023/10/03 03:22:59;;;;;;;33.58;13.00;;;17.20;99.90;;;;;;5068767;28;20041;-68
2023/10/03 03:25:35;;;;;;;32.83;13.35;;;17.20;99.90;;;;;;5051594;28;20036;-68
2023/10/03 03:28:01;;;;;;;35.63;13.13;;;17.20;99.90;;;;;;5050020;28;20132;-68
2023/10/03 03:32:53;;;;;;;40.58;14.57;;;17.30;99.90;;;;;;5059299;28;20377;-68
2023/10/03 03:35:24;;;;;;;37.60;13.55;;;17.30;99.90;;;;;;5060238;28;20151;-68
2023/10/03 03:37:55;;;;;;;32.10;13.30;;;17.30;99.90;;;;;;5064815;28;20356;-68
2023/10/03 03:40:31;;;;;;;37.80;14.35;;;17.20;99.90;;;;;;5039277;28;20041;-68
2023/10/03 03:42:59;;;;;;;36.00;13.70;;;17.20;99.90;;;;;;5039143;28;20076;-68
2023/10/03 03:45:27;;;;;;;36.15;14.55;;;17.30;99.90;;;;;;5037266;28;20048;-68
2023/10/03 03:47:56;;;;;;;36.08;12.85;;;17.30;99.90;;;;;;5023274;28;20044;-67
2023/10/03 03:50:22;;;;;;;35.33;13.02;;;17.40;99.90;;;;;;5060889;28;20055;-68
2023/10/03 03:52:49;;;;;;;35.10;14.75;;;17.30;99.90;;;;;;5061178;28;20456;-69
2023/10/03 03:55:16;;;;;;;32.75;12.75;;;17.40;99.90;;;;;;5040806;28;20055;-67
2023/10/03 03:57:42;;;;;;;35.60;13.88;;;17.40;99.90;;;;;;5047802;28;20033;-68
2023/10/03 04:00:12;;;;;;;32.53;13.65;;;17.40;99.90;;;;;;5048332;28;20488;-69
2023/10/03 04:02:38;;;;;;;30.98;12.77;;;17.50;99.90;;;;;;5059838;28;20481;-68
2023/10/03 04:05:07;;;;;;;32.28;13.10;;;17.40;99.90;;;;;;5067522;28;20110;-67
2023/10/03 04:07:33;;;;;;;38.67;14.02;;;17.50;99.90;;;;;;5033080;28;20056;-70
2023/10/03 04:09:59;;;;;;;33.58;13.45;;;17.50;99.90;;;;;;5042680;28;20468;-68
2023/10/03 04:12:25;;;;;;;34.92;12.98;;;17.40;99.90;;;;;;5046173;28;20029;-67
2023/10/03 04:14:51;;;;;;;36.63;14.75;;;17.40;99.90;;;;;;5053605;28;20433;-67
2023/10/03 04:17:18;;;;;;;30.40;13.27;;;17.40;99.90;;;;;;5066151;28;20036;-68
2023/10/03 04:19:45;;;;;;;29.73;13.27;;;17.40;99.90;;;;;;5062520;28;20045;-67
2023/10/03 04:22:11;;;;;;;34.80;12.85;;;17.50;99.90;;;;;;5048759;28;20056;-68
2023/10/03 04:24:37;;;;;;;32.42;12.80;;;17.50;99.90;;;;;;5059060;28;20097;-69
2023/10/03 04:27:03;;;;;;;33.80;13.05;;;17.50;99.90;;;;;;5052692;28;20040;-69
2023/10/03 04:29:28;;;;;;;36.08;13.10;;;17.50;99.90;;;;;;5049228;28;20056;-68
2023/10/03 04:31:54;;;;;;;32.13;12.10;;;17.40;99.90;;;;;;5042636;28;20086;-67
2023/10/03 04:34:20;;;;;;;31.83;12.52;;;17.40;99.90;;;;;;5065673;28;20040;-66
2023/10/03 04:36:47;;;;;;;37.80;12.32;;;17.50;99.90;;;;;;5043553;28;20041;-67
2023/10/03 04:39:13;;;;;;;31.48;12.18;;;17.50;99.90;;;;;;5057428;28;20041;-68
2023/10/03 04:41:43;;;;;;;32.10;12.80;;;17.60;99.90;;;;;;5049072;28;20040;-67
2023/10/03 04:44:14;;;;;;;29.60;11.65;;;17.60;99.90;;;;;;5048043;28;20197;-67
2023/10/03 04:46:40;;;;;;;34.45;12.48;;;17.70;99.90;;;;;;5067991;28;20029;-68
2023/10/03 04:49:07;;;;;;;30.63;11.98;;;17.70;99.90;;;;;;5067069;28;20046;-67
2023/10/03 04:51:33;;;;;;;30.73;12.63;;;17.70;99.90;;;;;;5048271;28;20044;-67
2023/10/03 04:53:58;;;;;;;36.63;12.98;;;17.60;99.90;;;;;;5064723;28;20147;-68
2023/10/03 04:56:24;;;;;;;29.58;12.50;;;17.60;99.90;;;;;;5067690;28;20166;-68
2023/10/03 04:58:49;;;;;;;30.65;12.35;;;17.60;99.90;;;;;;5047691;28;20130;-68
2023/10/03 05:01:15;;;;;;;27.60;11.48;;;17.60;99.90;;;;;;5061126;28;20523;-67
2023/10/03 05:03:41;;;;;;;29.58;11.70;;;17.70;99.90;;;;;;5060568;28;20372;-68
2023/10/03 05:06:06;;;;;;;30.05;10.90;;;17.70;99.90;;;;;;5061827;28;20094;-67
2023/10/03 05:08:32;;;;;;;30.25;11.55;;;17.80;99.90;;;;;;5060369;28;20052;-67
2023/10/03 05:11:02;;;;;;;31.90;12.05;;;17.80;99.90;;;;;;5068959;28;20048;-67
2023/10/03 05:13:28;;;;;;;29.67;11.73;;;17.80;99.90;;;;;;5041497;28;20132;-67
2023/10/03 05:15:54;;;;;;;30.42;11.10;;;17.80;99.90;;;;;;5048000;28;20453;-68
2023/10/03 05:18:19;;;;;;;24.13;10.90;;;17.90;99.90;;;;;;5051249;28;20174;-67
2023/10/03 05:20:45;;;;;;;28.73;11.50;;;17.90;99.90;;;;;;5041072;28;20104;-67
2023/10/03 05:23:14;;;;;;;28.63;11.15;;;17.90;99.90;;;;;;5063604;28;20033;-67
2023/10/03 05:25:42;;;;;;;26.40;11.30;;;18.00;99.90;;;;;;5062307;28;20051;-69
2023/10/03 05:28:11;;;;;;;27.20;11.55;;;18.10;99.90;;;;;;5045964;28;20495;-67
2023/10/03 05:30:38;;;;;;;26.15;11.52;;;18.10;99.90;;;;;;5056980;28;20053;-67
2023/10/03 05:33:06;;;;;;;26.33;10.40;;;18.10;99.90;;;;;;5046647;28;20147;-67
2023/10/03 05:35:32;;;;;;;29.48;10.57;;;18.20;99.90;;;;;;5062209;28;20075;-68
2023/10/03 05:37:58;;;;;;;26.83;10.95;;;18.10;99.90;;;;;;5041019;28;20397;-68
2023/10/03 05:40:23;;;;;;;29.27;10.05;;;18.20;99.90;;;;;;5060412;28;20037;-67
2023/10/03 05:42:50;;;;;;;25.80;9.52;;;18.20;99.90;;;;;;5048446;28;20043;-67
2023/10/03 05:45:17;;;;;;;28.50;10.50;;;18.20;99.90;;;;;;5066686;28;20045;-67
2023/10/03 05:47:45;;;;;;;30.58;10.43;;;18.30;99.90;;;;;;5050926;28;20044;-67
2023/10/03 05:50:11;;;;;;;24.08;10.50;;;18.30;99.90;;;;;;5067177;28;20068;-67
2023/10/03 05:52:37;;;;;;;25.65;10.38;;;18.30;99.90;;;;;;5045759;28;20067;-66
2023/10/03 05:55:02;;;;;;;27.77;10.15;;;18.40;99.90;;;;;;5046716;28;20134;-68
2023/10/03 05:57:28;;;;;;;23.85;9.45;;;18.40;99.90;;;;;;5051532;28;20039;-67
2023/10/03 05:59:54;;;;;;;24.73;10.40;;;18.40;99.90;;;;;;5044142;28;20412;-68
2023/10/03 06:02:21;;;;;;;23.02;10.50;;;18.50;99.90;;;;;;5068071;28;20448;-68
2023/10/03 06:04:54;;;;;;;26.02;9.98;;;18.50;99.90;;;;;;5099745;27;20452;-66
2023/10/03 06:07:19;;;;;;;23.60;10.20;;;18.50;99.90;;;;;;5100256;28;20105;-66
2023/10/03 06:09:45;;;;;;;27.70;10.07;;;18.50;99.90;;;;;;5082414;28;20036;-67
2023/10/03 06:12:11;;;;;;;19.20;9.27;;;18.60;99.90;;;;;;5076362;28;20040;-66
2023/10/03 06:14:39;;;;;;;24.45;9.80;;;18.60;99.90;;;;;;5084317;28;20140;-66
2023/10/03 06:17:07;;;;;;;23.63;9.30;;;18.60;99.90;;;;;;5082697;28;20530;-65
2023/10/03 06:19:32;;;;;;;22.42;9.13;;;18.60;99.90;;;;;;5082580;28;20048;-66
2023/10/03 06:21:58;;;;;;;25.38;8.90;;;18.60;99.90;;;;;;5081079;28;20743;-67
2023/10/03 06:24:25;;;;;;;23.55;8.85;;;18.60;99.90;;;;;;5099053;28;20039;-66
2023/10/03 06:26:51;;;;;;;20.85;8.27;;;18.70;99.90;;;;;;5081514;28;20214;-66
2023/10/03 06:29:17;;;;;;;20.15;8.15;;;18.70;99.90;;;;;;5082409;28;20128;-66
2023/10/03 06:31:44;;;;;;;20.08;8.05;;;18.70;99.90;;;;;;5086714;28;20044;-66
2023/10/03 06:34:09;;;;;;;20.92;7.75;;;18.60;99.90;;;;;;5098401;28;20071;-66
2023/10/03 06:36:35;;;;;;;17.65;7.57;;;18.70;99.90;;;;;;5097015;28;20432;-67
2023/10/03 06:39:04;;;;;;;18.45;6.60;;;18.70;99.90;;;;;;5103177;28;20043;-66
2023/10/03 06:41:30;;;;;;;18.25;6.68;;;18.70;99.90;;;;;;5095223;28;20377;-67
2023/10/03 06:43:55;;;;;;;13.00;6.10;;;18.70;99.90;;;;;;5089169;28;20132;-67
2023/10/03 06:46:21;;;;;;;14.93;5.88;;;18.70;99.90;;;;;;5081645;28;20032;-68
2023/10/03 06:48:46;;;;;;;18.88;6.10;;;18.70;99.90;;;;;;5079239;28;20127;-67
2023/10/03 06:51:12;;;;;;;18.70;6.50;;;18.70;99.90;;;;;;5081775;28;20375;-67
2023/10/03 06:53:41;;;;;;;14.32;5.15;;;18.70;99.90;;;;;;5080615;28;20176;-67
2023/10/03 06:56:07;;;;;;;14.10;5.40;;;18.70;99.90;;;;;;5083672;28;20052;-66
2023/10/03 06:58:33;;;;;;;13.18;4.47;;;18.70;99.90;;;;;;5086003;28;20036;-68
2023/10/03 07:00:59;;;;;;;12.30;4.30;;;18.70;99.90;;;;;;5056983;28;20398;-66
2023/10/03 07:03:24;;;;;;;8.63;3.83;;;18.70;99.90;;;;;;5082692;28;20045;-66
2023/10/03 07:05:50;;;;;;;9.68;5.07;;;18.60;99.90;;;;;;5085040;28;20598;-69
2023/10/03 07:08:15;;;;;;;9.07;3.22;;;18.60;99.90;;;;;;5078692;28;20036;-67
2023/10/03 07:10:41;;;;;;;12.75;3.92;;;18.60;99.90;;;;;;5086135;28;20116;-67
2023/10/03 07:13:08;;;;;;;13.85;3.63;;;18.50;99.90;;;;;;5082460;28;20059;-69
2023/10/03 07:15:33;;;;;;;12.70;4.43;;;18.50;99.90;;;;;;5057565;28;20088;-68
2023/10/03 07:17:59;;;;;;;14.23;3.30;;;18.60;99.90;;;;;;5067587;28;20106;-69
2023/10/03 07:20:25;;;;;;;10.02;3.30;;;18.60;99.90;;;;;;5068627;28;20040;-68
2023/10/03 07:22:50;;;;;;;10.27;3.60;;;18.60;99.90;;;;;;5051705;28;20045;-69
2023/10/03 07:25:16;;;;;;;10.32;3.58;;;18.80;99.90;;;;;;5068313;28;20089;-66
2023/10/03 07:27:41;;;;;;;10.80;3.40;;;18.80;99.90;;;;;;5066489;28;20033;-68
2023/10/03 07:30:09;;;;;;;10.43;3.30;;;18.80;99.90;;;;;;5064289;28;20036;-71
2023/10/03 07:32:35;;;;;;;10.68;3.45;;;18.70;99.90;;;;;;5035832;28;20124;-67
2023/10/03 07:35:02;;;;;;;11.48;3.67;;;18.50;99.90;;;;;;5081029;28;20105;-66
2023/10/03 07:37:28;;;;;;;10.35;3.50;;;18.40;99.90;;;;;;5063374;28;20032;-68
2023/10/03 07:39:53;;;;;;;10.38;3.53;;;18.40;99.90;;;;;;5070152;28;20048;-65
2023/10/03 07:42:21;;;;;;;10.50;3.95;;;18.40;99.90;;;;;;5070494;28;20119;-71
2023/10/03 07:44:52;;;;;;;11.27;3.50;;;18.40;99.90;;;;;;5069269;28;20136;-67
2023/10/03 07:47:17;;;;;;;11.57;3.40;;;18.40;99.90;;;;;;5077701;28;20379;-68
2023/10/03 07:49:43;;;;;;;11.50;3.28;;;18.30;99.90;;;;;;5066934;28;20140;-68
2023/10/03 07:52:08;;;;;;;13.82;3.90;;;18.30;99.90;;;;;;5065482;28;20044;-69
2023/10/03 07:54:36;;;;;;;8.38;3.40;;;18.20;99.90;;;;;;5071555;28;20041;-68
2023/10/03 07:57:05;;;;;;;11.63;3.40;;;18.20;99.90;;;;;;5049636;28;20049;-69
2023/10/03 07:59:31;;;;;;;9.48;3.35;;;18.30;99.90;;;;;;5057906;28;20040;-68
2023/10/03 08:01:57;;;;;;;10.85;3.88;;;18.30;99.90;;;;;;5068206;28;20127;-68
2023/10/03 08:04:24;;;;;;;9.45;3.67;;;18.10;99.90;;;;;;5069376;28;20127;-68
2023/10/03 08:06:49;;;;;;;13.15;4.18;;;17.90;99.90;;;;;;5064488;28;20139;-67
2023/10/03 08:09:16;;;;;;;10.65;3.95;;;17.60;99.90;;;;;;5059909;28;20531;-68
2023/10/03 08:11:46;;;;;;;8.77;4.18;;;17.30;99.90;;;;;;5068385;28;20376;-68
2023/10/03 08:14:13;;;;;;;8.83;4.13;;;17.20;99.90;;;;;;5074145;28;20040;-67
2023/10/03 08:16:46;;;;;;;14.38;4.43;;;17.10;99.90;;;;;;5070627;28;20385;-68
2023/10/03 08:19:25;;;;;;;16.55;4.72;;;17.00;99.90;;;;;;5068946;28;20128;-68
2023/10/03 08:21:52;;;;;;;11.35;4.03;;;17.00;99.90;;;;;;5050745;28;20094;-71
2023/10/03 08:24:24;;;;;;;13.18;4.50;;;17.00;99.90;;;;;;5069891;28;20055;-68
2023/10/03 08:26:51;;;;;;;11.38;5.05;;;16.90;99.90;;;;;;5068554;28;20099;-67
2023/10/03 08:29:24;;;;;;;13.13;4.13;;;16.90;99.90;;;;;;5084159;28;20039;-68
2023/10/03 08:31:56;;;;;;;11.02;4.60;;;17.00;99.90;;;;;;5069178;28;20129;-68
2023/10/03 08:34:29;;;;;;;11.05;3.80;;;16.90;99.90;;;;;;5082341;28;20534;-68
2023/10/03 08:36:59;;;;;;;10.00;3.88;;;16.90;99.90;;;;;;5076655;28;20070;-66
2023/10/03 08:39:26;;;;;;;9.43;3.55;;;16.90;99.90;;;;;;5074378;28;20036;-68
2023/10/03 08:42:12;;;;;;;7.75;3.42;;;16.90;99.90;;;;;;5063621;28;20119;-67
2023/10/03 08:44:56;;;;;;;6.78;2.60;;;17.00;99.90;;;;;;5069751;28;20041;-68
2023/10/03 08:47:30;;;;;;;6.60;1.92;;;17.00;99.90;;;;;;5070133;28;20036;-68
2023/10/03 08:50:10;;;;;;;7.28;2.85;;;16.90;99.90;;;;;;5068120;28;20044;-67
2023/10/03 08:52:47;;;;;;;8.25;2.58;;;16.80;99.90;;;;;;5067027;28;20176;-65
2023/10/03 08:55:19;;;;;;;9.52;2.67;;;16.80;99.90;;;;;;5067736;28;20028;-66
2023/10/03 08:57:50;;;;;;;7.90;2.13;;;16.60;99.90;;;;;;5070825;28;20037;-66
2023/10/03 09:00:17;;;;;;;8.70;1.85;;;16.50;99.90;;;;;;5080278;28;20044;-66
2023/10/03 09:02:47;;;;;;;9.85;2.38;;;16.50;99.90;;;;;;5064382;28;20040;-67
2023/10/03 09:05:19;;;;;;;7.00;1.77;;;16.40;99.90;;;;;;5068763;28;20060;-66
2023/10/03 09:07:51;;;;;;;8.00;1.90;;;16.50;99.90;;;;;;5067514;28;20137;-67
2023/10/03 09:10:25;;;;;;;8.80;1.60;;;16.50;99.90;;;;;;5063833;28;20078;-67
2023/10/03 09:12:52;;;;;;;3.83;1.65;;;16.60;99.90;;;;;;5069880;28;20139;-67
2023/10/03 09:15:22;;;;;;;9.10;1.60;;;16.70;99.90;;;;;;5068477;28;20368;-67
2023/10/03 09:17:49;;;;;;;4.28;1.25;;;16.70;99.90;;;;;;5068602;28;20064;-67
2023/10/03 09:20:22;;;;;;;5.95;0.98;;;16.70;99.90;;;;;;5065069;28;20135;-66
2023/10/03 09:22:48;;;;;;;5.53;1.10;;;16.70;99.90;;;;;;5063398;28;20041;-66
2023/10/03 09:25:16;;;;;;;7.22;1.23;;;16.70;99.90;;;;;;5067195;28;20037;-67
2023/10/03 09:27:42;;;;;;;8.10;1.50;;;16.80;99.90;;;;;;5062840;28;20582;-67
2023/10/03 09:30:22;;;;;;;7.03;1.10;;;16.90;99.90;;;;;;5067984;28;20587;-67
2023/10/03 09:32:53;;;;;;;2.90;0.65;;;16.90;99.90;;;;;;5065364;28;20044;-67
2023/10/03 09:35:19;;;;;;;3.83;1.10;;;16.80;99.90;;;;;;5065003;28;20040;-66
2023/10/03 09:37:48;;;;;;;4.70;1.00;;;16.80;99.90;;;;;;5063111;28;20028;-66
2023/10/03 09:40:18;;;;;;;6.18;1.10;;;16.70;99.90;;;;;;5064463;28;20476;-66
2023/10/03 09:42:50;;;;;;;2.25;0.50;;;16.70;99.90;;;;;;5067706;28;20136;-67
2023/10/03 09:45:24;;;;;;;2.40;0.40;;;16.60;99.90;;;;;;5073510;28;20044;-66
2023/10/03 09:47:58;;;;;;;1.65;0.40;;;16.50;99.90;;;;;;5082121;28;20069;-66
2023/10/03 09:50:26;;;;;;;2.33;0.40;;;16.50;99.90;;;;;;5063255;28;20133;-67
2023/10/03 09:52:52;;;;;;;1.50;0.30;;;16.40;99.90;;;;;;5069333;28;20036;-67
2023/10/03 09:55:26;;;;;;;2.88;0.30;;;16.40;99.90;;;;;;5066289;28;20672;-68
2023/10/03 09:57:59;;;;;;;0.93;0.60;;;16.30;99.90;;;;;;5050076;28;20051;-67
2023/10/03 10:00:38;;;;;;;1.38;0.22;;;16.20;99.90;;;;;;5057436;28;20249;-67
2023/10/03 10:03:08;;;;;;;1.55;0.40;;;16.20;99.90;;;;;;5065753;28;20042;-67
2023/10/03 10:05:35;;;;;;;1.25;0.30;;;16.10;99.90;;;;;;5066481;28;20174;-67
2023/10/03 10:08:41;;;;;;;1.88;0.20;;;16.10;99.90;;;;;;5063896;28;20035;-67
2023/10/03 10:11:09;;;;;;;7.50;0.60;;;16.10;99.90;;;;;;5019056;28;20096;-68
2023/10/03 10:13:37;;;;;;;2.35;0.32;;;16.10;99.90;;;;;;5056986;28;20060;-67
2023/10/03 10:16:11;;;;;;;2.75;0.30;;;16.10;99.90;;;;;;5061899;28;20045;-67
2023/10/03 10:18:46;;;;;;;1.67;0.30;;;16.20;99.90;;;;;;5083490;28;20437;-67
2023/10/03 10:21:36;;;;;;;2.13;0.30;;;16.20;99.90;;;;;;5065478;28;20045;-67
2023/10/03 10:24:11;;;;;;;3.50;0.35;;;16.30;99.90;;;;;;5057005;28;20078;-68
2023/10/03 10:26:38;;;;;;;4.53;0.40;;;16.30;99.90;;;;;;5074866;28;20047;-66
2023/10/03 10:29:14;;;;;;;4.47;0.30;;;16.40;99.90;;;;;;5041329;28;20037;-66
2023/10/03 10:31:44;;;;;;;4.70;0.47;;;16.50;99.90;;;;;;5066843;28;20078;-67
2023/10/03 10:34:21;;;;;;;2.88;0.35;;;16.50;99.90;;;;;;5068037;28;20395;-66
2023/10/03 10:36:54;;;;;;;3.42;0.75;;;16.40;99.90;;;;;;5056212;28;20052;-67
2023/10/03 10:39:23;;;;;;;3.40;0.40;;;16.40;99.90;;;;;;5069308;28;20075;-66
2023/10/03 10:42:09;;;;;;;3.13;0.30;;;16.40;99.90;;;;;;5067348;28;20132;-66
2023/10/03 10:44:35;;;;;;;2.33;0.40;;;16.40;99.90;;;;;;5067378;28;20044;-66
2023/10/03 10:47:06;;;;;;;2.97;0.50;;;16.20;99.90;;;;;;5067202;28;20448;-66
2023/10/03 10:49:33;;;;;;;3.30;0.70;;;16.00;99.90;;;;;;5057162;28;20132;-66
2023/10/03 10:52:13;;;;;;;1.85;0.50;;;15.80;99.90;;;;;;5083508;28;20029;-67
2023/10/03 10:54:41;;;;;;;6.20;1.05;;;15.90;99.90;;;;;;5071960;28;20053;-67
2023/10/03 10:57:21;;;;;;;4.78;0.68;;;15.90;99.90;;;;;;5069649;28;20079;-66
2023/10/03 10:59:47;;;;;;;3.55;0.50;;;16.00;99.90;;;;;;5054910;28;20047;-67
2023/10/03 11:02:22;;;;;;;3.88;0.50;;;16.10;99.90;;;;;;5069424;28;20044;-67
2023/10/03 11:04:54;;;;;;;1.40;0.40;;;16.30;99.90;;;;;;5066114;28;20051;-66
2023/10/03 11:07:25;;;;;;;3.67;0.70;;;16.40;99.90;;;;;;5061320;28;20123;-67
2023/10/03 11:09:52;;;;;;;3.53;0.70;;;16.40;99.90;;;;;;5061028;28;20093;-66
2023/10/03 11:12:25;;;;;;;5.85;1.00;;;16.50;99.90;;;;;;5069685;28;20036;-67
2023/10/03 11:14:52;;;;;;;4.15;0.77;;;16.50;99.90;;;;;;5063319;28;20072;-66
2023/10/03 11:17:18;;;;;;;4.78;0.80;;;16.60;99.90;;;;;;5059963;28;20219;-67
2023/10/03 11:19:46;;;;;;;2.42;0.52;;;16.60;99.90;;;;;;5052310;28;20066;-67
2023/10/03 11:22:12;;;;;;;4.85;0.90;;;16.70;99.90;;;;;;5048622;28;20428;-67
2023/10/03 11:24:39;;;;;;;6.65;1.00;;;16.70;99.90;;;;;;5082202;28;20079;-66
2023/10/03 11:27:05;;;;;;;4.82;0.75;;;16.60;99.90;;;;;;5067214;28;20040;-66
2023/10/03 11:29:48;;;;;;;5.50;0.80;;;16.50;99.90;;;;;;5057670;28;20214;-67
2023/10/03 11:32:33;;;;;;;3.08;0.60;;;16.50;99.90;;;;;;5068419;28;20476;-66
2023/10/03 11:35:17;;;;;;;5.22;0.70;;;16.30;99.90;;;;;;5063025;28;20454;-66
2023/10/03 11:37:44;;;;;;;1.67;0.57;;;16.30;99.90;;;;;;5066459;28;20143;-66
2023/10/03 11:40:21;;;;;;;4.38;0.52;;;16.30;99.90;;;;;;5069571;28;20052;-67
2023/10/03 11:42:58;;;;;;;4.00;0.63;;;16.20;99.90;;;;;;5059480;28;20437;-67
2023/10/03 11:45:29;;;;;;;1.70;0.80;;;16.10;99.90;;;;;;5065148;28;20409;-67
2023/10/03 11:48:01;;;;;;;3.22;0.95;;;16.00;99.90;;;;;;5057279;28;20124;-66
2023/10/03 11:50:28;;;;;;;1.98;0.35;;;15.90;99.90;;;;;;5065167;28;20139;-66
2023/10/03 11:52:57;;;;;;;3.83;0.40;;;15.90;99.90;;;;;;5079622;28;20479;-66
2023/10/03 11:55:23;;;;;;;1.35;0.45;;;15.80;99.90;;;;;;5064543;28;20040;-66
2023/10/03 11:57:50;;;;;;;2.88;0.57;;;15.80;99.90;;;;;;5063237;28;20132;-66
2023/10/03 12:00:16;;;;;;;3.83;0.60;;;15.80;99.90;;;;;;5062788;28;22900;-66
2023/10/03 12:02:45;;;;;;;3.05;0.50;;;15.80;99.90;;;;;;5060399;28;20033;-69
2023/10/03 12:05:11;;;;;;;2.38;0.60;;;15.80;99.90;;;;;;5060878;28;20052;-66
2023/10/03 12:07:39;;;;;;;1.95;0.60;;;15.80;99.90;;;;;;5064060;28;20451;-67
2023/10/03 12:10:06;;;;;;;2.55;0.80;;;15.70;99.90;;;;;;5065839;28;20131;-66
2023/10/03 12:12:33;;;;;;;5.72;0.90;;;15.70;99.90;;;;;;5062343;28;20024;-66
2023/10/03 12:14:58;;;;;;;4.03;1.25;;;15.80;99.90;;;;;;5062531;28;20048;-66
2023/10/03 12:17:24;;;;;;;3.33;1.10;;;15.80;99.90;;;;;;5064196;28;20044;-66
2023/10/03 12:19:50;;;;;;;4.10;1.15;;;15.90;99.90;;;;;;5074789;28;20522;-66
2023/10/03 12:22:16;;;;;;;3.45;1.10;;;15.70;99.90;;;;;;5066070;28;20080;-66
2023/10/03 12:24:41;;;;;;;5.60;1.40;;;15.50;99.90;;;;;;5061543;28;20046;-66
2023/10/03 12:27:07;;;;;;;4.22;1.27;;;15.50;99.90;;;;;;5062256;28;20040;-66
2023/10/03 12:29:32;;;;;;;5.53;1.20;;;15.40;99.90;;;;;;5066171;28;20052;-66
2023/10/03 12:31:58;;;;;;;4.07;1.45;;;15.30;99.90;;;;;;5063526;28;20114;-66
2023/10/03 12:34:29;;;;;;;5.72;1.52;;;15.20;99.90;;;;;;5069602;28;20441;-67
2023/10/03 12:36:55;;;;;;;5.43;1.48;;;15.10;99.90;;;;;;5057084;28;20053;-66
2023/10/03 12:39:24;;;;;;;4.38;1.50;;;15.10;99.90;;;;;;5066115;28;20440;-65
2023/10/03 12:41:50;;;;;;;5.90;2.20;;;15.00;99.90;;;;;;5066697;28;20104;-65
2023/10/03 12:44:16;;;;;;;7.32;1.90;;;14.70;99.90;;;;;;5067255;28;20105;-66
2023/10/03 12:46:42;;;;;;;5.40;1.50;;;14.60;99.90;;;;;;5066629;28;20056;-65